Latest Weather Observations for Albion Park

IDN60801

Issued at 11:35 pm EST Tuesday 2 September 2014 (issued every 30 minutes, with the page automatically refreshed every 10 minutes)

About weather observations | Map of weather stations | Latest weather observations for NSW | Other Formats
Station Details ID: 068241 Name: WOLLONGONG AIRPORT Lat: -34.56 Lon: 150.79 Height: 8.0 m
Data from the previous 72 hours. | See also: Recent months at Albion Park
Date/Time
EST
Temp
°C
App
Temp
°C
Dew
Point
Rel
Hum
%
Delta-T
°C
Wind Press
QNH
hPa
Press
MSL
hPa
Rain
since 9 am
mm
Dir
 
Spd
km/h
Gust
km/h
Spd
kts
Gust
kts
02/11:30pm 10.0 2.8 5.8 75 1.9 SSW 33 50 18 27 1011.3 - 10.6
02/11:00pm 9.8 2.9 6.3 79 1.6 SW 32 57 17 31 1011.7 1011.7 10.4
02/10:30pm 9.3 3.2 6.6 83 1.3 SW 28 46 15 25 1012.1 - 9.8
02/10:00pm 9.4 3.0 6.8 84 1.2 SW 30 52 16 28 1012.4 1012.4 8.8
02/09:56pm 9.4 3.0 6.8 84 1.2 SW 30 52 16 28 1012.3 - 8.6
02/09:42pm 9.4 1.6 6.8 84 1.2 SW 37 56 20 30 1012.0 - 7.8
02/09:30pm 9.4 2.4 6.7 83 1.3 SW 33 56 18 30 1012.0 - 7.0
02/09:00pm 9.4 3.3 6.5 82 1.3 WSW 28 48 15 26 1012.3 1012.3 6.0
02/08:30pm 9.0 1.4 5.7 80 1.5 SW 35 59 19 32 1012.3 - 5.4
02/08:00pm 9.4 0.4 6.5 82 1.3 SW 43 70 23 38 1012.0 1012.0 4.8
02/07:46pm 10.0 1.7 6.2 77 1.8 SW 39 69 21 37 1012.2 - 4.4
02/07:34pm 10.2 4.1 6.5 78 1.7 SW 28 46 15 25 1011.7 - 4.2
02/07:30pm 10.3 3.8 6.5 77 1.8 SW 30 46 16 25 1011.6 - 4.2
02/07:25pm 10.3 4.2 6.5 77 1.8 SW 28 46 15 25 1011.6 - 4.2
02/07:00pm 10.0 5.5 7.1 82 1.4 SW 20 32 11 17 1011.6 1011.6 4.2
02/06:30pm 10.8 4.8 7.1 78 1.8 SW 28 35 15 19 1011.2 - 3.8
02/06:19pm 11.1 5.1 7.0 76 2.0 SW 28 46 15 25 1011.0 - 3.8
02/06:00pm 11.0 6.6 8.8 86 1.1 SW 22 35 12 19 1010.8 1010.8 3.4
02/05:47pm 11.4 5.3 8.4 82 1.5 SW 30 44 16 24 1010.6 - 2.6
02/05:30pm 11.5 7.4 8.7 83 1.4 WSW 20 26 11 14 1009.9 - 1.8
02/05:00pm 11.5 8.9 9.2 86 1.2 SSW 13 24 7 13 1009.6 1009.6 1.0
02/04:30pm 11.6 7.9 9.5 87 1.1 W 19 24 10 13 1009.1 - 0.6
02/04:00pm 12.7 6.4 7.2 69 2.7 SSW 30 44 16 24 1008.9 1008.9 0.2
02/03:56pm 13.8 7.2 7.8 67 3.0 S 32 44 17 24 1008.8 - 0.2
02/03:30pm 15.3 12.7 7.8 61 3.7 W 11 17 6 9 1008.1 - 0.2
02/03:00pm 14.8 11.7 7.1 60 3.8 W 13 15 7 8 1007.9 1007.9 0.2
02/02:30pm 13.1 9.6 8.6 74 2.2 W 17 20 9 11 1008.1 - 0.2
02/02:00pm 12.7 9.6 8.8 77 2.0 W 15 19 8 10 1008.3 1008.3 0.2
02/01:30pm 12.6 8.5 8.7 77 1.9 W 20 24 11 13 1008.7 - 0.0
02/01:00pm 14.4 8.7 6.5 59 3.8 SW 26 35 14 19 1008.9 1008.9 0.0
02/12:30pm 13.9 8.9 7.9 67 3.0 SSW 24 32 13 17 1008.9 - 0.0
02/12:00pm 13.6 7.9 8.2 70 2.7 S 28 39 15 21 1008.7 1008.7 0.0
02/11:30am 14.5 9.9 8.2 66 3.2 S 22 32 12 17 1008.9 - 0.0
02/11:00am 15.0 9.5 7.5 61 3.7 WSW 26 32 14 17 1009.3 1009.3 0.0
02/10:30am 16.1 12.2 7.1 55 4.5 SW 17 24 9 13 1009.1 - 0.0
02/10:00am 16.6 12.1 6.1 50 5.1 SW 19 28 10 15 1009.0 1009.0 0.0
02/09:30am 16.7 13.1 6.8 52 4.9 W 15 22 8 12 1009.4 - 0.0
02/09:00am 15.5 11.5 6.8 56 4.3 W 17 20 9 11 1009.5 1009.5 0.0
02/08:30am 15.0 11.4 6.6 57 4.1 SW 15 24 8 13 1009.7 - 0.0
02/08:00am 14.4 9.8 6.5 59 3.8 WSW 20 24 11 13 1009.4 1009.4 0.0
02/07:30am 15.1 11.9 6.9 58 4.0 N 13 20 7 11 1008.7 - 0.0
02/07:00am 14.6 12.2 7.2 61 3.6 WNW 9 22 5 12 1008.7 1008.7 0.0
02/06:30am 14.9 11.4 7.0 59 3.9 NW 15 22 8 12 1008.7 - 0.0
02/06:00am 15.3 12.5 6.8 57 4.2 NNW 11 17 6 9 1008.4 1008.4 0.0
02/05:30am 14.8 11.8 7.6 62 3.6 NNW 13 15 7 8 1008.5 - 0.0
02/05:00am 14.5 11.5 7.5 63 3.5 W 13 17 7 9 1008.7 1008.7 0.0
02/04:30am 15.1 10.9 7.4 60 3.8 WNW 19 26 10 14 1008.7 - 0.0
02/04:00am 15.0 11.2 7.5 61 3.7 WNW 17 24 9 13 1009.1 1009.1 0.0
02/03:30am 15.2 11.4 7.5 60 3.8 WNW 17 26 9 14 1009.2 - 0.0
02/03:00am 15.9 11.8 7.7 58 4.1 WNW 19 24 10 13 1009.0 1009.0 0.0
02/02:30am 16.5 11.7 7.4 55 4.5 W 22 32 12 17 1008.9 - 0.0
02/02:00am 14.0 11.6 10.0 77 2.1 WSW 13 15 7 8 1009.0 1009.0 0.0
02/01:30am 13.6 12.4 10.4 81 1.7 SSW 7 13 4 7 1008.9 - 0.0
02/01:00am 13.2 12.2 10.4 83 1.5 W 6 9 3 5 1008.7 1008.7 0.0
02/12:30am 13.7 11.4 10.5 81 1.7 WNW 13 17 7 9 1009.0 - 0.0
02/12:00am 12.9 13.2 10.8 87 1.1 CALM 0 0 0 0 1009.4 1009.4 0.0
 
Date/Time
EST
Temp
°C
App
Temp
°C
Dew
Point
Rel
Hum
%
Delta-T
°C
Wind Press
QNH
hPa
Press
MSL
hPa
Rain
since 9 am
mm
Dir
 
Spd
km/h
Gust
km/h
Spd
kts
Gust
kts
01/11:30pm 12.7 13.0 10.8 88 1.0 CALM 0 0 0 0 1009.7 - 0.0
01/11:00pm 13.0 12.9 10.7 86 1.2 NE 2 6 1 3 1010.1 1010.1 0.0
01/10:30pm 13.2 12.0 10.2 82 1.6 WNW 7 9 4 5 1010.2 - 0.0
01/10:00pm 13.2 12.6 10.4 83 1.5 NW 4 7 2 4 1010.3 1010.3 0.0
01/09:30pm 12.8 12.7 10.7 87 1.1 W 2 7 1 4 1010.7 - 0.0
01/09:00pm 12.8 13.0 10.5 86 1.2 CALM 0 0 0 0 1010.6 1010.6 0.0
01/08:30pm 13.7 13.5 10.5 81 1.7 WNW 2 6 1 3 1010.9 - 0.0
01/08:00pm 13.8 12.4 10.8 82 1.6 W 9 13 5 7 1011.2 1011.2 0.0
01/07:30pm 14.2 12.8 11.0 81 1.7 W 9 13 5 7 1011.1 - 0.0
01/07:06pm 15.5 15.2 13.2 86 1.3 WSW 7 9 4 5 1011.1 - 0.0
01/07:00pm 15.0 14.3 12.1 83 1.6 WSW 7 9 4 5 1011.0 1011.0 0.0
01/06:50pm 15.7 15.4 12.6 82 1.7 WSW 6 9 3 5 1010.9 - 0.0
01/06:30pm 17.2 16.9 12.7 75 2.5 WSW 6 7 3 4 1010.8 - 0.0
01/06:00pm 17.7 18.1 13.8 78 2.2 WSW 4 9 2 5 1010.5 1010.5 0.0
01/05:30pm 18.1 17.4 14.2 78 2.2 SW 11 13 6 7 1010.3 - 0.0
01/05:00pm 19.1 19.0 13.3 69 3.3 E 6 9 3 5 1010.2 1010.2 0.0
01/04:30pm 19.7 18.5 13.9 69 3.3 NE 13 17 7 9 1010.1 - 0.0
01/04:00pm 20.8 19.9 13.7 64 4.1 NE 11 15 6 8 1010.0 1010.0 0.0
01/03:30pm 20.6 18.5 13.6 64 4.0 NE 17 22 9 12 1009.9 - 0.0
01/03:00pm 21.5 19.4 12.4 56 5.1 NE 15 20 8 11 1009.9 1009.9 0.0
01/02:30pm 21.1 17.9 11.4 54 5.4 ENE 19 22 10 12 1010.0 - 0.0
01/02:00pm 21.8 18.9 9.7 46 6.5 NE 15 19 8 10 1010.5 1010.5 0.0
01/01:30pm 22.5 20.9 8.6 41 7.4 ESE 7 13 4 7 1011.1 - 0.0
01/01:00pm 22.1 19.0 10.3 47 6.4 NE 17 22 9 12 1011.3 1011.3 0.0
01/12:30pm 22.0 18.9 12.3 54 5.5 E 20 32 11 17 1011.9 - 0.0
01/12:00pm 21.2 18.3 9.8 48 6.1 ENE 15 20 8 11 1012.6 1012.6 0.0
01/11:30am 20.7 17.5 9.9 50 5.8 NE 17 20 9 11 1013.2 - 0.0
01/11:00am 20.5 16.9 9.7 50 5.8 ENE 19 22 10 12 1013.5 1013.5 0.0
01/10:30am 19.7 16.5 10.1 54 5.2 ENE 17 20 9 11 1014.0 - 0.0
01/10:00am 19.6 16.8 10.0 54 5.1 ENE 15 17 8 9 1014.6 1014.6 0.0
01/09:30am 18.7 16.6 8.1 50 5.4 N 9 13 5 7 1015.2 - 0.0
01/09:00am 15.7 13.6 9.8 68 3.1 E 11 15 6 8 1015.7 1015.7 0.0
01/08:30am 13.7 12.0 9.9 78 2.0 E 9 11 5 6 1015.9 - 0.0
01/08:00am 11.1 10.6 10.9 99 0.1 W 4 7 2 4 1016.1 1016.1 0.0
01/07:30am 8.8 7.8 8.7 99 0.0 W 4 9 2 5 1016.3 - 0.0
01/07:00am 5.4 3.2 5.3 99 0.0 W 6 7 3 4 1016.2 1016.2 0.0
01/06:30am 5.6 3.8 5.5 99 0.0 W 4 11 2 6 1015.9 - 0.0
01/06:18am 5.1 2.3 5.0 99 0.0 W 9 11 5 6 1016.0 - 0.0
01/06:00am 5.2 3.7 5.1 99 0.0 WNW 2 13 1 7 1015.9 1015.9 0.0
01/05:30am 5.7 4.7 5.6 99 0.0 CALM 0 0 0 0 1015.8 - 0.0
01/05:00am 6.1 3.9 6.0 99 0.0 WNW 7 9 4 5 1015.8 1015.8 0.0
01/04:42am 6.0 5.1 5.9 99 0.0 CALM 0 0 0 0 1015.5 - 0.0
01/04:30am 5.9 4.9 5.8 99 0.0 CALM 0 6 0 3 1015.5 - 0.0
01/04:11am 6.4 4.8 6.3 99 0.0 WNW 4 7 2 4 1015.6 - 0.0
01/04:00am 6.4 4.8 6.3 99 0.0 WNW 4 6 2 3 1015.6 1015.6 0.0
01/03:40am 6.4 4.8 6.3 99 0.0 WNW 4 9 2 5 1015.7 - 0.0
01/03:30am 5.9 4.9 5.8 99 0.0 CALM 0 0 0 0 1015.7 - 0.0
01/03:18am 6.0 5.1 5.9 99 0.0 CALM 0 0 0 0 1015.7 - 0.0
01/03:00am 6.9 6.2 6.8 99 0.0 CALM 0 0 0 0 1015.6 1015.6 0.0
01/02:30am 6.9 6.2 6.8 99 0.0 CALM 0 0 0 0 1015.9 - 0.0
01/02:00am 7.2 6.5 7.1 99 0.0 CALM 0 0 0 0 1016.3 1016.3 0.0
01/01:30am 7.3 6.7 7.2 99 0.0 CALM 0 0 0 0 1016.8 - 0.0
01/01:00am 7.4 6.0 7.3 99 0.0 WNW 4 6 2 3 1017.1 1017.1 0.0
01/12:38am 7.2 6.5 7.1 99 0.0 CALM 0 0 0 0 1017.2 - 0.0
01/12:30am 7.5 6.9 7.4 99 0.0 CALM 0 0 0 0 1017.3 - 0.0
01/12:19am 7.9 7.4 7.8 99 0.0 CALM 0 0 0 0 1017.3 - 0.0
01/12:00am 8.0 7.1 7.9 99 0.0 WNW 2 7 1 4 1017.5 1017.5 0.0
 
Date/Time
EST
Temp
°C
App
Temp
°C
Dew
Point
Rel
Hum
%
Delta-T
°C
Wind Press
QNH
hPa
Press
MSL
hPa
Rain
since 9 am
mm
Dir
 
Spd
km/h
Gust
km/h
Spd
kts
Gust
kts
31/11:30pm 8.4 8.0 8.3 99 0.0 CALM 0 0 0 0 1017.8 - 0.0
31/11:00pm 8.3 6.7 8.0 98 0.1 WNW 6 9 3 5 1017.9 1017.9 0.0
31/10:30pm 9.2 7.3 8.9 98 0.1 WNW 9 11 5 6 1017.9 - 0.0
31/10:00pm 9.4 8.0 8.9 97 0.2 WNW 6 9 3 5 1018.2 1018.2 0.0
31/09:30pm 9.9 8.6 9.3 96 0.3 WNW 6 7 3 4 1018.1 - 0.0
31/09:00pm 10.8 9.2 10.3 97 0.3 WNW 9 11 5 6 1018.3 1018.3 0.0
31/08:30pm 10.8 9.6 10.2 96 0.3 W 7 11 4 6 1018.2 - 0.0
31/08:00pm 11.0 9.0 10.1 94 0.5 W 11 11 6 6 1018.4 1018.4 0.0
31/07:30pm 12.2 10.9 11.4 95 0.4 W 9 11 5 6 1018.1 - 0.0
31/07:00pm 12.3 11.0 11.2 93 0.6 W 9 11 5 6 1018.0 1018.0 0.0
31/06:30pm 12.8 11.4 11.0 89 0.9 W 9 11 5 6 1017.8 - 0.0
31/06:00pm 14.9 14.2 11.9 82 1.6 ENE 7 7 4 4 1017.4 1017.4 0.0
31/05:30pm 16.4 15.5 12.6 78 2.1 NE 9 11 5 6 1017.2 - 0.0
31/05:00pm 17.3 15.5 12.2 72 2.8 NE 13 15 7 8 1017.2 1017.2 0.0
31/04:30pm 17.7 15.7 11.5 67 3.4 NE 13 17 7 9 1017.0 - 0.0
31/04:00pm 18.1 15.7 11.4 65 3.6 NE 15 19 8 10 1017.0 1017.0 0.0
31/03:30pm 18.8 16.7 12.3 66 3.6 NE 15 19 8 10 1017.1 - 0.0
31/03:00pm 18.8 16.7 12.3 66 3.6 NE 15 20 8 11 1017.2 1017.2 0.0
31/02:30pm 18.7 16.2 12.2 66 3.6 NE 17 24 9 13 1017.4 - 0.0
31/02:00pm 19.6 18.2 13.3 67 3.6 NE 13 20 7 11 1017.7 1017.7 0.0
31/01:30pm 19.1 16.7 12.8 67 3.5 ESE 17 22 9 12 1017.9 - 0.0
31/01:00pm 19.5 17.7 13.4 68 3.5 E 15 20 8 11 1018.2 1018.2 0.0
31/12:30pm 19.2 17.6 12.7 66 3.6 ESE 13 19 7 10 1018.5 - 0.0
31/12:00pm 19.0 16.4 12.0 64 3.9 NE 17 20 9 11 1019.0 1019.0 0.0
31/11:30am 19.0 16.7 11.8 63 4.0 NE 15 19 8 10 1019.5 - 0.0
31/11:00am 19.2 18.2 11.0 59 4.4 SSW 7 11 4 6 1019.8 1019.8 0.0
31/10:30am 18.4 17.5 10.7 61 4.1 WSW 6 11 3 6 1020.2 - 0.0
31/10:00am 18.2 17.5 11.3 64 3.7 WSW 6 7 3 4 1020.6 1020.6 0.0
31/09:30am 17.8 17.1 10.2 61 4.0 WSW 4 9 2 5 1020.7 - 0.0
31/09:00am 17.2 16.7 10.6 65 3.5 WSW 4 7 2 4 1020.9 1020.9 0.6
31/08:30am 16.1 15.2 10.6 70 2.9 WSW 6 9 3 5 1021.0 - 0.6
31/08:00am 14.9 13.4 10.5 75 2.3 WSW 9 15 5 8 1021.0 1021.0 0.6
31/07:30am 13.5 11.9 10.1 80 1.8 WSW 9 15 5 8 1020.8 - 0.6
31/07:00am 11.8 10.0 9.5 86 1.2 WSW 9 13 5 7 1020.8 1020.8 0.6
31/06:30am 11.3 8.7 9.2 87 1.0 WSW 13 17 7 9 1020.7 - 0.6
31/06:00am 12.1 8.7 9.3 83 1.4 WSW 17 20 9 11 1020.5 1020.5 0.6
31/05:30am 13.0 9.8 10.0 82 1.5 WSW 17 22 9 12 1020.4 - 0.6
31/05:00am 12.5 10.5 10.2 86 1.2 SW 11 13 6 7 1020.4 1020.4 0.6
31/04:30am 12.8 12.2 10.5 86 1.2 WSW 4 9 2 5 1020.4 - 0.6
31/04:00am 11.6 9.9 10.0 90 0.8 WSW 9 13 5 7 1020.4 1020.4 0.6
31/03:30am 11.9 9.1 10.0 88 1.0 WSW 15 19 8 10 1020.5 - 0.6
31/03:00am 12.1 9.7 10.0 87 1.1 W 13 15 7 8 1020.6 1020.6 0.6
31/02:30am 12.8 10.1 10.5 86 1.2 WSW 15 20 8 11 1020.8 - 0.6
31/02:00am 13.2 10.8 10.2 82 1.5 WSW 13 15 7 8 1020.9 1020.9 0.6
31/01:30am 13.9 10.9 10.7 81 1.7 SSW 17 24 9 13 1021.3 - 0.6
31/01:00am 12.9 12.1 11.0 88 1.0 W 6 11 3 6 1021.6 1021.6 0.6
31/12:30am 12.7 11.2 10.4 86 1.2 W 9 13 5 7 1021.8 - 0.6
31/12:00am 13.5 11.1 10.1 80 1.8 WSW 13 20 7 11 1021.8 1021.8 0.6

Other Formats:

Comma delimited format used in spreadsheet applications
http://www.bom.gov.au/fwo/IDN60801/IDN60801.95748.axf

JavaScript Object Notation format (JSON) in row-major order
http://www.bom.gov.au/fwo/IDN60801/IDN60801.95748.json